createdAt,value
2022-12-12T00:12:23.282Z,25.35808
2022-12-12T00:27:25.657Z,1.2679
2022-12-12T00:42:27.934Z,0
2022-12-12T00:57:30.122Z,0
2022-12-12T01:12:32.347Z,0
2022-12-12T01:27:34.567Z,0
2022-12-12T01:42:36.765Z,0
2022-12-12T01:57:38.995Z,0
2022-12-12T02:12:41.249Z,0
2022-12-12T02:27:43.440Z,0
2022-12-12T02:42:45.678Z,0
2022-12-12T02:57:47.935Z,0
2022-12-12T03:12:50.162Z,0
2022-12-12T03:27:52.358Z,0
2022-12-12T03:42:54.576Z,0
2022-12-12T03:57:57.105Z,0
2022-12-12T04:12:59.792Z,0
2022-12-12T04:28:03.212Z,0
2022-12-12T04:43:05.489Z,0
2022-12-12T04:58:07.730Z,0
2022-12-12T05:13:09.925Z,0
2022-12-12T05:28:12.939Z,0
2022-12-12T05:43:15.309Z,0
2022-12-12T05:58:17.542Z,0
2022-12-12T06:13:19.751Z,0
2022-12-12T06:28:21.937Z,0
2022-12-12T06:43:24.141Z,0
2022-12-12T06:58:26.455Z,0
2022-12-12T07:13:28.639Z,0
2022-12-12T07:28:30.961Z,0
2022-12-12T07:43:35.290Z,0
2022-12-12T07:58:39.516Z,0
2022-12-12T08:13:41.900Z,0
2022-12-12T08:28:44.161Z,0
2022-12-12T08:43:46.375Z,0
2022-12-12T08:58:48.622Z,0
2022-12-12T09:13:50.848Z,0
2022-12-12T09:28:53.080Z,0
2022-12-12T09:43:55.279Z,0
2022-12-12T09:58:57.656Z,0
2022-12-12T10:13:59.892Z,0
2022-12-12T10:29:02.246Z,0
2022-12-12T10:44:04.525Z,0
2022-12-12T10:59:06.942Z,0
2022-12-12T11:14:09.153Z,0
2022-12-12T11:29:11.401Z,0
2022-12-12T11:44:18.626Z,0
2022-12-12T11:59:22.455Z,0
2022-12-12T12:14:24.676Z,0
2022-12-12T12:29:26.919Z,0
2022-12-12T12:44:29.076Z,0
2022-12-12T12:59:31.325Z,0
2022-12-12T13:14:33.547Z,0
2022-12-12T13:29:35.738Z,0
2022-12-12T13:44:37.957Z,0
2022-12-12T13:59:40.169Z,0
2022-12-12T14:14:42.401Z,0
2022-12-12T14:29:44.589Z,0
2022-12-12T14:44:50.673Z,0
2022-12-12T14:59:53.221Z,1.2679
2022-12-12T15:14:55.391Z,17.75065
2022-12-12T15:29:57.630Z,128.05829
2022-12-12T15:45:00.051Z,384.17487
2022-12-12T16:00:02.392Z,852.03137
2022-12-12T16:15:04.839Z,1169.00732
2022-12-12T16:30:07.097Z,1690.11572
2022-12-12T16:45:09.514Z,1986.8053
2022-12-12T17:00:12.045Z,2922.51831
2022-12-12T17:15:14.545Z,2950.41211
2022-12-12T17:30:17.089Z,3546.3269
2022-12-12T17:45:19.580Z,4143.50977
2022-12-12T18:00:21.856Z,4465.55713
2022-12-12T18:15:24.208Z,5167.97607
2022-12-12T18:30:26.421Z,6367.41309
2022-12-12T18:45:28.818Z,7412.16553
2022-12-12T19:00:31.080Z,7536.42041
2022-12-12T19:15:33.472Z,8089.22607
2022-12-12T19:30:35.846Z,9259.50195
2022-12-12T19:45:38.088Z,7348.77051
2022-12-12T20:00:40.327Z,17180.0957
2022-12-12T20:15:42.726Z,10815.21973
2022-12-12T20:30:47.638Z,16894.81836
2022-12-12T20:45:51.837Z,18979.25195
2022-12-12T21:00:54.113Z,17661.90039
2022-12-12T21:15:56.361Z,14271.52539
2022-12-12T21:30:58.676Z,12194.69922
2022-12-12T21:46:01.006Z,10494.43945
2022-12-12T22:01:03.197Z,5317.58838
2022-12-12T22:16:05.574Z,3846.82007
2022-12-12T22:31:07.888Z,3253.44116
2022-12-12T22:46:10.181Z,2927.58984
2022-12-12T23:01:12.448Z,2114.86353
2022-12-12T23:16:14.802Z,1645.73914
2022-12-12T23:31:17.122Z,1233.67041
2022-12-12T23:46:19.542Z,588.30737
